createdAt,value
2022-10-09T00:01:19.335Z,7.93
2022-10-09T00:03:47.881Z,9.13
2022-10-09T00:06:17.708Z,9.10
2022-10-09T00:08:44.497Z,10.15
2022-10-09T00:11:14.213Z,10.27
2022-10-09T00:13:41.160Z,10.20
2022-10-09T00:16:10.378Z,9.33
2022-10-09T00:18:37.390Z,9.15
2022-10-09T00:21:05.246Z,8.32
2022-10-09T00:23:33.134Z,8.27
2022-10-09T00:26:01.613Z,8.35
2022-10-09T00:28:31.754Z,9.13
2022-10-09T00:31:04.200Z,9.13
2022-10-09T00:33:30.711Z,8.88
2022-10-09T00:35:57.258Z,7.82
2022-10-09T00:38:23.740Z,9.00
2022-10-09T00:40:52.091Z,10.23
2022-10-09T00:43:37.496Z,9.27
2022-10-09T00:46:04.352Z,8.10
2022-10-09T00:48:31.661Z,10.07
2022-10-09T00:51:00.876Z,9.05
2022-10-09T00:53:29.966Z,7.80
2022-10-09T00:55:58.384Z,7.45
2022-10-09T00:58:25.719Z,9.32
2022-10-09T01:00:52.802Z,7.97
2022-10-09T01:03:19.293Z,7.28
2022-10-09T01:05:53.979Z,6.37
2022-10-09T01:08:28.076Z,8.27
2022-10-09T01:11:04.610Z,7.80
2022-10-09T01:13:37.003Z,8.93
2022-10-09T01:16:08.674Z,7.72
2022-10-09T01:18:44.231Z,7.33
2022-10-09T01:21:16.819Z,8.73
2022-10-09T01:23:56.547Z,7.93
2022-10-09T01:26:50.873Z,7.38
2022-10-09T01:29:19.774Z,7.68
2022-10-09T01:31:48.971Z,8.00
2022-10-09T01:34:19.007Z,6.88
2022-10-09T01:36:46.269Z,8.45
2022-10-09T01:39:17.154Z,7.10
2022-10-09T01:41:44.346Z,7.38
2022-10-09T01:44:20.110Z,7.23
2022-10-09T01:46:47.205Z,7.18
2022-10-09T01:49:32.377Z,6.22
2022-10-09T01:52:05.267Z,8.68
2022-10-09T01:54:37.493Z,8.07
2022-10-09T01:57:06.805Z,8.27
2022-10-09T01:59:37.942Z,7.78
2022-10-09T02:02:06.172Z,7.03
2022-10-09T02:04:33.806Z,6.70
2022-10-09T02:07:00.448Z,6.38
2022-10-09T02:09:28.803Z,8.67
2022-10-09T02:12:00.515Z,6.10
2022-10-09T02:14:27.395Z,6.40
2022-10-09T02:17:02.425Z,5.78
2022-10-09T02:19:34.772Z,9.10
2022-10-09T02:22:07.906Z,5.53
2022-10-09T02:24:37.757Z,6.68
2022-10-09T02:27:05.128Z,8.15
2022-10-09T02:29:31.959Z,7.03
2022-10-09T02:32:00.088Z,7.03
2022-10-09T02:34:26.815Z,7.03
2022-10-09T02:36:53.429Z,6.78
2022-10-09T02:39:19.927Z,7.00
2022-10-09T02:41:46.438Z,7.53
2022-10-09T02:44:12.939Z,8.20
2022-10-09T02:46:39.480Z,7.20
2022-10-09T02:49:07.923Z,7.00
2022-10-09T02:51:34.829Z,7.15
2022-10-09T02:54:01.544Z,6.55
2022-10-09T02:56:28.368Z,6.82
2022-10-09T02:58:54.994Z,6.70
2022-10-09T03:01:21.946Z,7.53
2022-10-09T03:03:48.490Z,8.20
2022-10-09T03:06:19.202Z,6.65
2022-10-09T03:08:47.444Z,9.30
2022-10-09T03:11:15.352Z,6.37
2022-10-09T03:13:42.451Z,7.40
2022-10-09T03:16:11.481Z,6.75
2022-10-09T03:18:38.860Z,6.78
2022-10-09T03:21:05.720Z,6.65
2022-10-09T03:23:33.999Z,5.67
2022-10-09T03:26:02.096Z,6.95
2022-10-09T03:28:29.339Z,6.00
2022-10-09T03:30:56.520Z,6.78
2022-10-09T03:33:23.438Z,5.88
2022-10-09T03:35:50.123Z,6.70
2022-10-09T03:38:17.263Z,6.95
2022-10-09T03:40:45.197Z,5.68
2022-10-09T03:43:11.697Z,5.25
2022-10-09T03:45:39.598Z,6.53
2022-10-09T03:48:06.327Z,7.00
2022-10-09T03:50:33.079Z,7.22
2022-10-09T03:52:59.623Z,7.22
2022-10-09T03:55:26.219Z,5.95
2022-10-09T03:57:54.063Z,7.72
2022-10-09T04:00:20.995Z,5.00
2022-10-09T04:02:48.096Z,6.32
2022-10-09T04:05:15.070Z,7.68
2022-10-09T04:07:41.698Z,7.25
2022-10-09T04:10:09.060Z,8.35
2022-10-09T04:12:35.971Z,7.27
2022-10-09T04:15:04.372Z,5.75
2022-10-09T04:17:30.949Z,6.93
2022-10-09T04:19:57.611Z,6.68
2022-10-09T04:22:24.303Z,6.32
2022-10-09T04:24:50.776Z,10.00
2022-10-09T04:27:17.350Z,11.30
2022-10-09T04:29:43.912Z,13.40
2022-10-09T04:32:11.737Z,12.20
2022-10-09T04:34:38.283Z,11.43
2022-10-09T04:37:04.775Z,8.43
2022-10-09T04:39:31.259Z,11.38
2022-10-09T04:41:57.758Z,7.90
2022-10-09T04:44:24.317Z,7.28
2022-10-09T04:46:51.020Z,7.43
2022-10-09T04:49:18.963Z,7.67
2022-10-09T04:51:45.469Z,6.03
2022-10-09T04:54:12.474Z,6.40
2022-10-09T04:56:39.319Z,8.00
2022-10-09T04:59:05.966Z,6.80
2022-10-09T05:01:37.239Z,9.53
2022-10-09T05:04:05.036Z,8.82
2022-10-09T05:06:32.886Z,9.45
2022-10-09T05:08:59.405Z,7.88
2022-10-09T05:11:26.099Z,9.02
2022-10-09T05:13:54.360Z,8.43
2022-10-09T05:16:23.444Z,9.65
2022-10-09T05:18:51.498Z,10.45
2022-10-09T05:21:18.236Z,8.77
2022-10-09T05:23:46.358Z,8.05
2022-10-09T05:26:15.283Z,12.03
2022-10-09T05:28:42.423Z,9.45
2022-10-09T05:31:10.083Z,7.57
2022-10-09T05:33:36.675Z,7.68
2022-10-09T05:36:05.259Z,7.95
2022-10-09T05:38:33.043Z,8.20
2022-10-09T05:41:02.935Z,8.30
2022-10-09T05:43:31.305Z,8.25
2022-10-09T05:46:05.821Z,6.05
2022-10-09T05:48:32.477Z,8.25
2022-10-09T05:51:06.871Z,6.27
2022-10-09T05:53:33.417Z,6.70
2022-10-09T05:56:14.232Z,7.25
2022-10-09T05:58:40.927Z,6.45
2022-10-09T06:01:07.556Z,8.00
2022-10-09T06:03:34.321Z,8.20
2022-10-09T06:06:01.731Z,6.70
2022-10-09T06:08:28.403Z,7.07
2022-10-09T06:10:54.939Z,8.30
2022-10-09T06:13:23.019Z,8.43
2022-10-09T06:15:53.312Z,10.47
2022-10-09T06:18:20.433Z,8.75
2022-10-09T06:20:53.581Z,8.85
2022-10-09T06:23:20.349Z,8.65
2022-10-09T06:25:51.722Z,9.30
2022-10-09T06:28:18.299Z,8.27
2022-10-09T06:30:46.241Z,9.30
2022-10-09T06:33:13.012Z,12.13
2022-10-09T06:35:39.724Z,11.13
2022-10-09T06:38:06.356Z,9.93
2022-10-09T06:40:34.845Z,10.00
2022-10-09T06:43:01.380Z,7.78
2022-10-09T06:45:27.999Z,9.80
2022-10-09T06:47:55.889Z,8.90
2022-10-09T06:50:22.618Z,11.02
2022-10-09T06:52:49.418Z,8.23
2022-10-09T06:55:16.214Z,9.02
2022-10-09T06:57:42.735Z,7.70
2022-10-09T07:00:10.338Z,10.40
2022-10-09T07:02:40.566Z,9.85
2022-10-09T07:05:11.751Z,9.43
2022-10-09T07:07:39.982Z,9.20
2022-10-09T07:10:07.279Z,8.57
2022-10-09T07:12:34.230Z,10.15
2022-10-09T07:15:00.940Z,10.05
2022-10-09T07:17:27.554Z,9.17
2022-10-09T07:19:54.069Z,10.80
2022-10-09T07:22:26.772Z,11.52
2022-10-09T07:24:53.551Z,12.40
2022-10-09T07:27:20.170Z,13.60
2022-10-09T07:29:46.793Z,12.33
2022-10-09T07:32:13.408Z,12.20
2022-10-09T07:34:40.033Z,12.70
2022-10-09T07:37:06.683Z,12.75
2022-10-09T07:39:34.551Z,11.45
2022-10-09T07:42:01.354Z,10.90
2022-10-09T07:44:27.887Z,11.07
2022-10-09T07:46:54.395Z,11.30
2022-10-09T07:49:21.129Z,12.13
2022-10-09T07:51:47.639Z,10.45
2022-10-09T07:54:14.344Z,10.17
2022-10-09T07:56:42.292Z,8.55
2022-10-09T07:59:15.991Z,9.93
2022-10-09T08:01:42.860Z,9.57
2022-10-09T08:04:10.393Z,9.93
2022-10-09T08:06:36.974Z,9.27
2022-10-09T08:09:05.420Z,8.70
2022-10-09T08:11:32.216Z,8.07
2022-10-09T08:14:00.075Z,10.48
2022-10-09T08:16:27.649Z,10.57
2022-10-09T08:18:56.291Z,13.50
2022-10-09T08:21:22.846Z,13.07
2022-10-09T08:23:53.500Z,10.07
2022-10-09T08:26:21.910Z,13.60
2022-10-09T08:28:51.461Z,10.48
2022-10-09T08:31:20.688Z,9.13
2022-10-09T08:33:47.387Z,10.57
2022-10-09T08:36:14.447Z,8.35
2022-10-09T08:38:48.854Z,8.85
2022-10-09T08:41:23.242Z,10.68
2022-10-09T08:43:55.913Z,10.23
2022-10-09T08:46:28.544Z,9.75
2022-10-09T08:48:55.858Z,9.30
2022-10-09T08:51:27.894Z,9.55
2022-10-09T08:54:01.480Z,8.73
2022-10-09T08:56:30.310Z,8.40
2022-10-09T08:58:56.955Z,8.30
2022-10-09T09:01:33.103Z,9.57
2022-10-09T09:04:14.152Z,9.57
2022-10-09T09:06:47.644Z,9.00
2022-10-09T09:09:20.549Z,10.23
2022-10-09T09:11:53.094Z,9.15
2022-10-09T09:14:34.776Z,10.70
2022-10-09T09:17:11.086Z,12.18
2022-10-09T09:19:48.640Z,13.02
2022-10-09T09:22:16.628Z,10.90
2022-10-09T09:24:48.496Z,11.30
2022-10-09T09:27:18.516Z,15.02
2022-10-09T09:29:48.569Z,13.73
2022-10-09T09:32:20.293Z,11.55
2022-10-09T09:34:47.334Z,11.93
2022-10-09T09:37:13.931Z,10.32
2022-10-09T09:42:28.387Z,9.93
2022-10-09T09:44:59.210Z,10.45
2022-10-09T09:47:34.473Z,11.00
2022-10-09T09:50:03.555Z,9.82
2022-10-09T09:52:36.022Z,10.57
2022-10-09T09:55:04.649Z,11.10
2022-10-09T09:57:34.328Z,11.38
2022-10-09T10:00:23.421Z,10.30
2022-10-09T10:03:02.354Z,9.77
2022-10-09T10:05:36.150Z,9.80
2022-10-09T10:08:13.059Z,9.25
2022-10-09T10:10:44.724Z,9.43
2022-10-09T10:13:15.302Z,9.60
2022-10-09T10:15:49.371Z,8.88
2022-10-09T10:18:18.952Z,8.90
2022-10-09T10:20:47.530Z,12.02
2022-10-09T10:23:23.919Z,9.23
2022-10-09T10:28:26.710Z,8.38
2022-10-09T10:30:56.063Z,8.15
2022-10-09T10:33:28.930Z,8.63
2022-10-09T10:35:57.814Z,8.40
2022-10-09T10:38:29.620Z,8.30
2022-10-09T10:41:05.075Z,9.32
2022-10-09T10:43:38.932Z,8.57
2022-10-09T10:46:15.388Z,7.53
2022-10-09T10:48:45.096Z,8.13
2022-10-09T10:51:41.673Z,8.37
2022-10-09T10:54:20.287Z,8.75
2022-10-09T10:56:51.126Z,6.95
2022-10-09T10:59:37.253Z,6.85
2022-10-09T11:02:33.463Z,7.88
2022-10-09T11:05:15.360Z,6.80
2022-10-09T11:07:49.414Z,8.95
2022-10-09T11:10:24.151Z,7.20
2022-10-09T11:12:58.056Z,7.10
2022-10-09T11:15:32.944Z,7.07
2022-10-09T11:18:08.000Z,7.90
2022-10-09T11:20:57.235Z,9.32
2022-10-09T11:23:38.160Z,9.55
2022-10-09T11:26:13.165Z,8.10
2022-10-09T11:28:46.503Z,9.25
2022-10-09T11:31:16.517Z,8.50
2022-10-09T11:33:46.858Z,6.70
2022-10-09T11:36:20.096Z,7.18
2022-10-09T11:38:51.854Z,6.55
2022-10-09T11:41:19.040Z,7.40
2022-10-09T11:44:01.365Z,6.43
2022-10-09T11:46:44.628Z,7.60
2022-10-09T11:49:19.996Z,6.32
2022-10-09T11:51:57.172Z,6.80
2022-10-09T11:54:25.507Z,5.63
2022-10-09T11:56:54.888Z,7.17
2022-10-09T11:59:23.436Z,6.43
2022-10-09T12:01:50.056Z,6.05
2022-10-09T12:04:37.443Z,5.78
2022-10-09T12:07:11.911Z,5.45
2022-10-09T12:09:41.498Z,7.17
2022-10-09T12:12:22.748Z,7.03
2022-10-09T12:14:51.871Z,5.38
2022-10-09T12:17:32.856Z,5.35
2022-10-09T12:20:04.980Z,6.00
2022-10-09T12:22:36.350Z,3.60
2022-10-09T12:25:06.347Z,3.63
2022-10-09T12:27:36.525Z,4.40
2022-10-09T12:30:15.940Z,3.47
2022-10-09T12:32:48.345Z,5.03
2022-10-09T12:35:22.355Z,3.80
2022-10-09T12:37:50.356Z,5.15
2022-10-09T12:40:22.148Z,5.10
2022-10-09T12:42:50.166Z,4.05
2022-10-09T12:45:19.245Z,5.97
2022-10-09T12:47:46.464Z,3.97
2022-10-09T12:50:22.615Z,4.40
2022-10-09T12:52:52.752Z,4.75
2022-10-09T12:55:25.702Z,5.15
2022-10-09T12:57:53.250Z,5.18
2022-10-09T13:00:19.848Z,4.30
2022-10-09T13:02:46.532Z,4.05
2022-10-09T13:05:13.230Z,4.97
2022-10-09T13:07:40.048Z,4.88
2022-10-09T13:10:17.883Z,4.43
2022-10-09T13:12:50.811Z,5.30
2022-10-09T13:15:30.691Z,4.90
2022-10-09T13:17:57.333Z,5.28
2022-10-09T13:20:26.602Z,5.00
2022-10-09T13:22:53.831Z,5.60
2022-10-09T13:25:22.019Z,4.43
2022-10-09T13:27:48.768Z,3.90
2022-10-09T13:30:15.629Z,4.07
2022-10-09T13:32:42.096Z,4.93
2022-10-09T13:35:09.639Z,4.07
2022-10-09T13:37:36.278Z,4.60
2022-10-09T13:40:03.494Z,4.90
2022-10-09T13:42:36.303Z,3.70
2022-10-09T13:45:03.019Z,4.53
2022-10-09T13:47:29.717Z,5.20
2022-10-09T13:49:56.427Z,3.73
2022-10-09T13:52:22.965Z,3.65
2022-10-09T13:54:49.484Z,3.50
2022-10-09T13:57:16.000Z,4.30
2022-10-09T13:59:44.168Z,3.95
2022-10-09T14:02:11.490Z,4.80
2022-10-09T14:04:38.317Z,4.22
2022-10-09T14:07:04.914Z,3.65
2022-10-09T14:09:31.392Z,4.20
2022-10-09T14:11:58.038Z,4.10
2022-10-09T14:14:24.584Z,3.67
2022-10-09T14:16:52.512Z,4.15
2022-10-09T14:19:19.152Z,6.25
2022-10-09T14:21:45.665Z,6.22
2022-10-09T14:24:12.337Z,2.33
2022-10-09T14:26:38.870Z,5.87
2022-10-09T14:29:05.379Z,3.78
2022-10-09T14:31:31.982Z,3.47
2022-10-09T14:33:59.866Z,3.72
2022-10-09T14:36:27.415Z,3.03
2022-10-09T14:38:54.052Z,3.57
2022-10-09T14:41:21.555Z,3.30
2022-10-09T14:43:53.745Z,4.75
2022-10-09T14:46:20.367Z,2.95
2022-10-09T14:48:47.284Z,4.20
2022-10-09T14:51:17.159Z,2.67
2022-10-09T14:53:43.868Z,3.22
2022-10-09T14:56:13.323Z,4.68
2022-10-09T14:58:40.568Z,4.88
2022-10-09T15:01:07.800Z,3.25
2022-10-09T15:03:35.416Z,3.30
2022-10-09T15:06:05.538Z,3.97
2022-10-09T15:08:34.967Z,5.50
2022-10-09T15:11:02.085Z,2.90
2022-10-09T15:13:29.144Z,2.85
2022-10-09T15:15:58.879Z,3.93
2022-10-09T15:18:25.782Z,4.57
2022-10-09T15:20:52.524Z,5.28
2022-10-09T15:23:19.575Z,4.25
2022-10-09T15:25:49.608Z,4.00
2022-10-09T15:28:16.663Z,5.03
2022-10-09T15:30:44.554Z,4.72
2022-10-09T15:33:11.203Z,6.28
2022-10-09T15:35:37.695Z,4.50
2022-10-09T15:38:04.299Z,4.75
2022-10-09T15:40:30.775Z,4.77
2022-10-09T15:42:58.711Z,4.85
2022-10-09T15:45:25.222Z,6.13
2022-10-09T15:47:52.379Z,4.32
2022-10-09T15:50:19.004Z,6.03
2022-10-09T15:52:45.489Z,5.23
2022-10-09T15:55:11.980Z,3.78
2022-10-09T15:57:38.572Z,4.72
2022-10-09T16:00:08.009Z,5.38
2022-10-09T16:02:35.942Z,5.10
2022-10-09T16:05:02.478Z,4.13
2022-10-09T16:07:29.078Z,4.80
2022-10-09T16:09:55.606Z,5.35
2022-10-09T16:12:22.261Z,3.67
2022-10-09T16:14:48.793Z,4.68
2022-10-09T16:17:16.674Z,5.33
2022-10-09T16:19:43.161Z,4.43
2022-10-09T16:22:09.796Z,23.38
2022-10-09T16:24:36.304Z,31.30
2022-10-09T16:27:03.040Z,24.70
2022-10-09T16:29:30.008Z,12.97
2022-10-09T16:31:56.539Z,8.90
2022-10-09T16:34:24.442Z,8.25
2022-10-09T16:36:50.942Z,6.28
2022-10-09T16:39:17.481Z,6.57
2022-10-09T16:41:43.998Z,6.50
2022-10-09T16:44:13.391Z,8.13
2022-10-09T16:46:39.958Z,8.70
2022-10-09T16:49:06.865Z,9.00
2022-10-09T16:51:35.993Z,10.15
2022-10-09T16:54:05.112Z,10.30
2022-10-09T16:56:34.862Z,8.43
2022-10-09T16:59:03.414Z,10.98
2022-10-09T17:01:30.680Z,11.57
2022-10-09T17:03:58.831Z,10.50
2022-10-09T17:06:26.971Z,9.83
2022-10-09T17:08:57.186Z,9.82
2022-10-09T17:11:25.567Z,11.77
2022-10-09T17:13:53.128Z,9.77
2022-10-09T17:16:21.990Z,8.60
2022-10-09T17:18:48.847Z,8.80
2022-10-09T17:21:17.126Z,8.65
2022-10-09T17:23:44.415Z,9.55
2022-10-09T17:26:15.209Z,10.70
2022-10-09T17:28:42.499Z,11.60
2022-10-09T17:31:12.358Z,21.97
2022-10-09T17:33:38.932Z,17.58
2022-10-09T17:36:05.764Z,17.80
2022-10-09T17:38:32.306Z,17.63
2022-10-09T17:40:58.911Z,23.60
2022-10-09T17:43:26.951Z,21.07
2022-10-09T17:45:53.470Z,14.45
2022-10-09T17:48:20.025Z,13.65
2022-10-09T17:50:51.266Z,12.48
2022-10-09T17:53:17.831Z,12.68
2022-10-09T17:55:44.453Z,13.40
2022-10-09T17:58:11.134Z,15.98
2022-10-09T18:00:39.075Z,12.80
2022-10-09T18:03:05.891Z,10.93
2022-10-09T18:05:32.796Z,11.00
2022-10-09T18:07:59.383Z,9.80
2022-10-09T18:10:25.922Z,9.75
2022-10-09T18:12:52.481Z,10.82
2022-10-09T18:15:19.068Z,9.95
2022-10-09T18:17:47.057Z,10.40
2022-10-09T18:20:13.627Z,9.17
2022-10-09T18:22:40.268Z,8.60
2022-10-09T18:25:08.949Z,9.90
2022-10-09T18:27:35.650Z,9.32
2022-10-09T18:30:02.219Z,9.00
2022-10-09T18:32:29.288Z,11.03
2022-10-09T18:34:57.206Z,10.95
2022-10-09T18:37:23.864Z,10.27
2022-10-09T18:39:50.488Z,10.80
2022-10-09T18:42:17.056Z,15.88
2022-10-09T18:44:43.593Z,16.50
2022-10-09T18:47:14.419Z,14.45
2022-10-09T18:49:43.784Z,13.73
2022-10-09T18:52:12.717Z,24.10
2022-10-09T18:54:40.021Z,36.08
2022-10-09T18:57:06.835Z,17.33
2022-10-09T18:59:35.466Z,11.77
2022-10-09T19:02:02.918Z,10.10
2022-10-09T19:04:29.633Z,8.77
2022-10-09T19:06:56.857Z,8.60
2022-10-09T19:09:24.853Z,10.67
2022-10-09T19:11:51.660Z,10.05
2022-10-09T19:14:18.800Z,14.35
2022-10-09T19:16:45.390Z,11.43
2022-10-09T19:19:11.930Z,9.80
2022-10-09T19:21:38.469Z,13.60
2022-10-09T19:24:05.456Z,10.32
2022-10-09T19:26:34.992Z,10.40
2022-10-09T19:29:01.637Z,12.93
2022-10-09T19:31:28.310Z,9.80
2022-10-09T19:33:54.832Z,10.47
2022-10-09T19:36:21.350Z,12.35
2022-10-09T19:38:47.833Z,12.15
2022-10-09T19:41:15.727Z,12.27
2022-10-09T19:43:43.688Z,11.88
2022-10-09T19:46:13.819Z,12.10
2022-10-09T19:48:40.626Z,14.80
2022-10-09T19:51:08.399Z,12.30
2022-10-09T19:53:35.357Z,11.32
2022-10-09T19:56:02.236Z,11.75
2022-10-09T19:58:29.131Z,12.27
2022-10-09T20:00:57.088Z,10.40
2022-10-09T20:03:23.693Z,9.73
2022-10-09T20:05:50.367Z,11.80
2022-10-09T20:08:16.867Z,10.45
2022-10-09T20:10:43.550Z,10.80
2022-10-09T20:13:10.110Z,8.68
2022-10-09T20:15:41.548Z,10.48
2022-10-09T20:18:09.604Z,9.63
2022-10-09T20:20:37.020Z,9.20
2022-10-09T20:23:03.525Z,9.43
2022-10-09T20:25:30.066Z,8.65
2022-10-09T20:27:56.551Z,9.30
2022-10-09T20:30:23.092Z,7.18
2022-10-09T20:32:49.853Z,8.77
2022-10-09T20:35:18.789Z,7.27
2022-10-09T20:37:45.274Z,7.88
2022-10-09T20:40:11.990Z,8.27
2022-10-09T20:42:38.648Z,8.27
2022-10-09T20:45:06.101Z,8.27
2022-10-09T20:47:32.731Z,7.43
2022-10-09T20:49:59.272Z,7.43
2022-10-09T20:52:27.252Z,7.82
2022-10-09T20:54:53.772Z,7.57
2022-10-09T20:57:20.264Z,7.40
2022-10-09T20:59:46.775Z,9.27
2022-10-09T21:02:13.726Z,7.38
2022-10-09T21:04:40.394Z,7.22
2022-10-09T21:07:06.930Z,6.45
2022-10-09T21:09:34.775Z,8.07
2022-10-09T21:12:01.290Z,6.27
2022-10-09T21:14:27.776Z,6.32
2022-10-09T21:16:54.278Z,6.55
2022-10-09T21:19:21.065Z,5.40
2022-10-09T21:21:50.849Z,7.05
2022-10-09T21:24:18.061Z,7.60
2022-10-09T21:26:45.953Z,7.18
2022-10-09T21:29:13.631Z,12.70
2022-10-09T21:31:40.144Z,13.63
2022-10-09T21:34:06.750Z,44.72
2022-10-09T21:36:46.879Z,35.27
2022-10-09T21:39:22.621Z,27.05
2022-10-09T21:41:50.585Z,20.15
2022-10-09T21:44:18.138Z,13.73
2022-10-09T21:46:44.653Z,8.95
2022-10-09T21:49:18.937Z,9.00
2022-10-09T21:51:45.662Z,6.63
2022-10-09T21:54:12.166Z,8.20
2022-10-09T21:56:38.674Z,7.72
2022-10-09T21:59:06.647Z,9.07
2022-10-09T22:01:33.207Z,7.10
2022-10-09T22:03:59.939Z,8.93
2022-10-09T22:06:26.457Z,9.98
2022-10-09T22:08:53.079Z,8.60
2022-10-09T22:11:19.668Z,9.07
2022-10-09T22:13:46.192Z,7.10
2022-10-09T22:16:14.974Z,7.13
2022-10-09T22:18:42.007Z,7.47
2022-10-09T22:21:11.197Z,8.35
2022-10-09T22:23:37.841Z,6.97
2022-10-09T22:26:06.827Z,8.50
2022-10-09T22:28:34.063Z,7.00
2022-10-09T22:31:02.727Z,7.50
2022-10-09T22:33:30.744Z,6.75
2022-10-09T22:36:08.987Z,6.85
2022-10-09T22:38:36.284Z,7.78
2022-10-09T22:41:04.673Z,7.07
2022-10-09T22:43:31.231Z,6.07
2022-10-09T22:45:57.766Z,7.22
2022-10-09T22:48:24.428Z,7.18
2022-10-09T22:50:52.273Z,8.15
2022-10-09T22:53:18.801Z,8.43
2022-10-09T22:55:45.317Z,7.57
2022-10-09T22:58:11.856Z,8.18
2022-10-09T23:00:38.667Z,6.50
2022-10-09T23:03:05.195Z,7.43
2022-10-09T23:05:31.729Z,8.13
2022-10-09T23:07:59.572Z,8.18
2022-10-09T23:10:26.097Z,8.50
2022-10-09T23:12:52.826Z,7.38
2022-10-09T23:15:19.599Z,6.90
2022-10-09T23:17:46.118Z,7.87
2022-10-09T23:20:12.812Z,6.25
2022-10-09T23:22:39.287Z,6.65
2022-10-09T23:25:08.391Z,7.00
2022-10-09T23:27:34.921Z,6.18
2022-10-09T23:30:01.569Z,6.17
2022-10-09T23:32:28.110Z,7.43
2022-10-09T23:34:54.634Z,6.82
2022-10-09T23:37:21.194Z,6.68
2022-10-09T23:39:47.745Z,6.75
2022-10-09T23:42:15.575Z,7.07
2022-10-09T23:44:42.246Z,6.78
2022-10-09T23:47:08.737Z,7.68
2022-10-09T23:49:35.282Z,6.70
2022-10-09T23:52:01.801Z,7.15
2022-10-09T23:54:28.333Z,5.33
2022-10-09T23:56:54.889Z,6.03
2022-10-09T23:59:22.762Z,6.15
